Time;durP1;ratioP1;P1;durP2;ratioP2;P2;SDS_P1;SDS_P2;PMS_P1;PMS_P2;Temp;Humidity;BMP_temperature;BMP_pressure;BME280_temperature;BME280_humidity;BME280_pressure;Samples;Min_cycle;Max_cycle;Signal;HPM_P1;HPM_P2
2022/06/01 00:01:01;;;;;;;6.70;4.23;;;;;;;21.35;75.54;99483.38;5073657;28;20563;-74
2022/06/01 00:03:31;;;;;;;5.13;4.67;;;;;;;21.37;75.67;99483.94;5073338;28;20242;-74
2022/06/01 00:05:58;;;;;;;5.00;4.40;;;;;;;21.37;75.84;99489.34;5073539;28;20647;-74
2022/06/01 00:08:26;;;;;;;4.87;4.50;;;;;;;21.33;76.65;99480.16;5073746;28;20260;-73
2022/06/01 00:10:54;;;;;;;7.57;4.80;;;;;;;21.33;76.55;99477.44;5073278;28;20733;-75
2022/06/01 00:13:20;;;;;;;6.80;4.57;;;;;;;21.32;76.00;99481.25;5073357;28;20278;-75
2022/06/01 00:15:48;;;;;;;4.47;4.17;;;;;;;21.34;75.94;99481.78;5073529;28;20196;-75
2022/06/01 00:18:14;;;;;;;5.23;4.50;;;;;;;21.33;75.76;99488.25;5074006;28;20269;-75
2022/06/01 00:20:41;;;;;;;4.67;4.27;;;;;;;21.32;75.69;99491.22;5073176;28;20630;-76
2022/06/01 00:23:08;;;;;;;4.93;4.57;;;;;;;21.30;75.93;99488.78;5073112;28;20199;-77
2022/06/01 00:25:37;;;;;;;4.50;4.10;;;;;;;21.27;76.06;99486.59;5072923;28;20253;-76
2022/06/01 00:28:05;;;;;;;5.47;4.43;;;;;;;21.22;76.71;99475.78;5073033;28;20195;-75
2022/06/01 00:30:32;;;;;;;4.50;4.10;;;;;;;21.20;76.39;99482.53;5072228;28;20257;-75
2022/06/01 00:32:59;;;;;;;4.93;4.47;;;;;;;21.13;75.91;99490.88;5073120;28;20192;-75
2022/06/01 00:35:26;;;;;;;6.67;4.43;;;;;;;20.94;75.90;99489.72;5073333;28;20187;-76
2022/06/01 00:37:53;;;;;;;4.07;3.87;;;;;;;20.71;75.44;99490.09;5072711;28;20188;-74
2022/06/01 00:40:22;;;;;;;4.00;3.70;;;;;;;20.65;74.55;99501.16;5072878;28;20192;-75
2022/06/01 00:42:53;;;;;;;3.93;3.67;;;;;;;20.59;73.45;99492.19;5073226;28;20601;-75
2022/06/01 00:45:23;;;;;;;4.90;3.73;;;;;;;20.55;72.96;99491.09;5073851;28;20320;-75
2022/06/01 00:47:50;;;;;;;3.77;3.47;;;;;;;20.48;72.74;99487.78;5072757;28;20192;-74
2022/06/01 00:50:22;;;;;;;4.33;3.93;;;;;;;20.45;72.29;99485.59;5072223;28;20603;-74
2022/06/01 00:52:53;;;;;;;3.60;3.30;;;;;;;20.44;72.01;99478.59;5072337;28;20729;-74
2022/06/01 00:55:22;;;;;;;3.33;3.10;;;;;;;20.35;72.49;99482.84;5071997;28;20877;-74
2022/06/01 00:57:57;;;;;;;3.53;3.23;;;;;;;20.20;72.42;99466.53;5071739;28;20664;-77
2022/06/01 01:00:26;;;;;;;3.23;3.03;;;;;;;20.39;72.10;99486.66;5072401;28;20309;-76
2022/06/01 01:02:56;;;;;;;3.40;3.10;;;;;;;20.36;71.83;99484.47;5072588;28;20203;-76
2022/06/01 01:05:24;;;;;;;3.50;3.20;;;;;;;20.38;71.86;99475.03;5072839;28;20227;-76
2022/06/01 01:07:52;;;;;;;3.97;2.83;;;;;;;20.45;71.69;99485.59;5072593;28;20265;-75
2022/06/01 01:10:20;;;;;;;3.00;2.80;;;;;;;20.53;71.68;99482.44;5072453;28;20279;-75
2022/06/01 01:13:01;;;;;;;5.83;3.03;;;;;;;20.57;71.40;99467.34;5072507;28;20227;-75
2022/06/01 01:15:35;;;;;;;7.57;3.30;;;;;;;20.53;71.79;99471.63;5071944;28;20187;-75
2022/06/01 01:18:06;;;;;;;3.20;3.00;;;;;;;20.56;71.12;99473.81;5072359;28;20602;-75
2022/06/01 01:20:35;;;;;;;3.40;3.10;;;;;;;20.65;71.00;99464.16;5072166;28;20195;-74
2022/06/01 01:23:13;;;;;;;3.50;3.30;;;;;;;20.70;70.88;99461.47;5072077;28;20200;-74
2022/06/01 01:25:41;;;;;;;5.17;3.20;;;;;;;20.64;70.85;99451.72;5072070;28;20717;-77
2022/06/01 01:28:10;;;;;;;3.63;3.20;;;;;;;20.66;70.97;99468.47;5071900;28;20733;-76
2022/06/01 01:30:53;;;;;;;3.03;2.83;;;;;;;20.65;71.00;99469.53;5072076;28;20253;-75
2022/06/01 01:33:24;;;;;;;3.47;3.20;;;;;;;20.61;71.99;99470.34;5072140;28;20671;-75
2022/06/01 01:35:54;;;;;;;5.20;3.20;;;;;;;20.72;71.63;99475.53;5072157;28;20618;-76
2022/06/01 01:38:34;;;;;;;3.30;3.10;;;;;;;20.83;71.39;99471.81;5072163;28;20276;-77
2022/06/01 01:41:06;;;;;;;3.20;3.10;;;;;;;20.90;70.81;99472.38;5071761;28;20180;-77
2022/06/01 01:43:38;;;;;;;3.93;3.10;;;;;;;20.99;70.89;99470.03;5071819;28;20187;-77
2022/06/01 01:46:05;;;;;;;3.87;3.57;;;;;;;20.91;70.13;99463.25;5072187;28;20188;-77
2022/06/01 01:48:32;;;;;;;3.50;3.20;;;;;;;20.73;71.04;99455.56;5071508;28;20249;-78
2022/06/01 01:50:59;;;;;;;3.37;3.17;;;;;;;20.59;71.60;99454.41;5072178;28;20682;-78
2022/06/01 01:53:25;;;;;;;3.53;3.23;;;;;;;20.55;71.65;99453.31;5072233;28;20580;-77
2022/06/01 01:56:04;;;;;;;3.87;3.30;;;;;;;20.55;72.18;99458.69;5071572;28;20195;-77
2022/06/01 01:58:42;;;;;;;3.77;3.47;;;;;;;20.66;72.59;99460.38;5072338;28;20329;-77
2022/06/01 02:01:15;;;;;;;4.43;3.60;;;;;;;20.76;71.85;99455.03;5072408;28;20209;-76
2022/06/01 02:03:47;;;;;;;3.33;3.00;;;;;;;20.78;71.42;99462.88;5071414;28;20572;-76
2022/06/01 02:06:23;;;;;;;4.33;3.67;;;;;;;20.71;71.81;99457.72;5071563;28;20275;-76
2022/06/01 02:08:55;;;;;;;3.57;3.27;;;;;;;20.65;72.18;99458.75;5071691;28;20271;-77
2022/06/01 02:14:17;;;;;;;5.57;3.93;;;;;;;20.63;72.69;99455.50;5071488;28;20183;-76
2022/06/01 02:16:48;;;;;;;3.87;3.20;;;;;;;20.61;72.39;99454.94;5072028;28;20183;-76
2022/06/01 02:19:20;;;;;;;4.47;3.70;;;;;;;20.54;72.64;99447.09;5071836;28;20207;-77
2022/06/01 02:21:47;;;;;;;5.53;3.77;;;;;;;20.41;73.14;99452.13;5071293;28;20727;-76
2022/06/01 02:24:14;;;;;;;3.90;3.60;;;;;;;20.33;74.01;99449.91;5071438;28;20187;-76
2022/06/01 02:26:41;;;;;;;4.87;3.40;;;;;;;20.36;73.63;99465.59;5071856;28;20261;-77
2022/06/01 02:29:12;;;;;;;4.07;3.30;;;;;;;20.34;73.70;99462.34;5071903;28;20246;-76
2022/06/01 02:31:42;;;;;;;4.87;3.40;;;;;;;20.32;74.02;99467.19;5071467;28;20230;-76
2022/06/01 02:34:10;;;;;;;3.90;3.60;;;;;;;20.37;73.35;99465.34;5071279;28;20593;-76
2022/06/01 02:36:39;;;;;;;3.90;3.17;;;;;;;20.42;73.16;99467.25;5071228;28;20187;-77
2022/06/01 02:39:08;;;;;;;4.03;3.60;;;;;;;20.41;72.34;99469.13;5071336;28;20223;-77
2022/06/01 02:44:19;;;;;;;5.27;3.17;;;;;;;20.28;72.99;99463.38;5072027;28;20241;-75
2022/06/01 02:46:47;;;;;;;3.93;3.60;;;;;;;20.29;72.95;99462.28;5071762;28;20192;-76
2022/06/01 02:49:17;;;;;;;3.33;3.03;;;;;;;20.30;72.81;99464.72;5071045;28;20225;-76
2022/06/01 02:51:44;;;;;;;3.90;3.43;;;;;;;20.29;73.02;99467.69;5071433;28;20565;-76
2022/06/01 02:54:11;;;;;;;3.60;3.37;;;;;;;20.32;73.68;99469.88;5074337;28;20257;-76
2022/06/01 02:56:37;;;;;;;3.73;3.30;;;;;;;20.36;73.27;99477.22;5074862;28;20236;-77
2022/06/01 02:59:04;;;;;;;4.83;3.47;;;;;;;20.38;73.18;99475.03;5074619;28;20273;-76
2022/06/01 03:01:31;;;;;;;6.90;3.63;;;;;;;20.38;72.84;99474.25;5074341;28;20196;-76
2022/06/01 03:03:59;;;;;;;3.67;3.37;;;;;;;20.39;72.89;99479.34;5074483;28;20668;-77
2022/06/01 03:06:26;;;;;;;4.37;3.63;;;;;;;20.48;72.24;99485.09;5074495;28;20246;-77
2022/06/01 03:08:53;;;;;;;3.40;3.10;;;;;;;20.49;71.67;99481.31;5074867;28;20204;-77
2022/06/01 03:11:19;;;;;;;3.87;3.53;;;;;;;20.41;71.34;99479.09;5074862;28;20192;-77
2022/06/01 03:13:46;;;;;;;3.80;3.50;;;;;;;20.35;71.30;99485.56;5074325;28;20196;-77
2022/06/01 03:16:13;;;;;;;6.67;3.73;;;;;;;20.26;72.35;99482.50;5074078;28;20204;-76
2022/06/01 03:18:39;;;;;;;5.90;4.37;;;;;;;20.27;72.16;99483.34;5074386;28;20237;-76
2022/06/01 03:21:08;;;;;;;4.13;3.53;;;;;;;20.32;71.84;99475.28;5074939;28;20223;-76
2022/06/01 03:23:34;;;;;;;4.43;3.97;;;;;;;20.28;72.02;99484.94;5074377;28;20671;-75
2022/06/01 03:26:01;;;;;;;5.90;3.93;;;;;;;20.22;72.27;99481.41;5074476;28;20192;-76
2022/06/01 03:28:28;;;;;;;4.40;4.00;;;;;;;20.09;72.87;99479.16;5073990;28;20249;-76
2022/06/01 03:30:54;;;;;;;6.10;4.10;;;;;;;20.09;73.28;99481.84;5073381;28;20572;-76
2022/06/01 03:33:21;;;;;;;3.70;3.40;;;;;;;20.20;74.15;99478.16;5073867;28;20249;-76
2022/06/01 03:35:48;;;;;;;5.37;4.03;;;;;;;20.35;73.12;99474.75;5074021;28;20196;-76
2022/06/01 03:38:16;;;;;;;4.63;3.90;;;;;;;20.76;71.87;99486.59;5073495;28;20192;-76
2022/06/01 03:40:43;;;;;;;4.20;3.77;;;;;;;21.15;70.40;99479.81;5074053;28;20292;-75
2022/06/01 03:43:12;;;;;;;5.10;3.90;;;;;;;21.22;69.44;99492.00;5073593;28;20567;-76
2022/06/01 03:45:58;;;;;;;5.03;4.10;;;;;;;21.17;68.89;99494.69;5073872;28;20685;-75
2022/06/01 03:48:27;;;;;;;8.93;3.73;;;;;;;21.30;68.48;99488.78;5073800;28;20190;-75
2022/06/01 03:50:54;;;;;;;3.50;3.20;;;;;;;21.47;67.77;99491.28;5074003;28;20263;-75
2022/06/01 03:53:23;;;;;;;8.97;4.40;;;;;;;21.43;67.44;99488.28;5074179;28;20257;-76
2022/06/01 03:55:50;;;;;;;4.20;3.73;;;;;;;21.39;67.39;99486.38;5073827;28;20196;-76
2022/06/01 03:58:20;;;;;;;7.00;4.43;;;;;;;21.34;67.76;99486.34;5073009;28;20196;-76
2022/06/01 04:00:47;;;;;;;6.77;4.67;;;;;;;21.43;67.42;99485.56;5073376;28;20270;-77
2022/06/01 04:03:15;;;;;;;7.30;3.80;;;;;;;21.55;66.83;99488.84;5073216;28;20237;-75
2022/06/01 04:05:41;;;;;;;6.70;4.30;;;;;;;22.25;64.51;99470.00;5072271;28;20652;-74
2022/06/01 04:08:09;;;;;;;10.43;4.10;;;;;;;23.43;60.86;99498.97;5073320;28;20250;-75
2022/06/01 04:10:39;;;;;;;4.17;3.10;;;;;;;24.31;56.56;99510.59;5073523;28;20253;-73
2022/06/01 04:13:06;;;;;;;3.47;3.17;;;;;;;25.18;54.41;99509.47;5073466;28;20219;-75
2022/06/01 04:15:33;;;;;;;7.70;3.57;;;;;;;25.84;52.21;99524.63;5073022;28;20251;-74
2022/06/01 04:18:00;;;;;;;7.80;3.50;;;;;;;26.19;51.21;99515.13;5073317;28;20194;-74
2022/06/01 04:20:26;;;;;;;5.83;3.53;;;;;;;27.15;48.66;99513.13;5072657;28;20312;-74
2022/06/01 04:22:55;;;;;;;4.53;3.70;;;;;;;28.00;45.34;99533.16;5072895;28;20721;-73
2022/06/01 04:25:22;;;;;;;10.67;3.97;;;;;;;28.80;44.74;99535.81;5072785;28;20192;-75
2022/06/01 04:27:51;;;;;;;3.83;3.03;;;;;;;29.79;40.22;99538.75;5072472;28;20733;-78
2022/06/01 04:30:20;;;;;;;4.27;3.37;;;;;;;29.98;40.38;99526.41;5073053;28;20196;-75
2022/06/01 04:32:49;;;;;;;4.07;2.60;;;;;;;30.45;39.30;99517.19;5072805;28;20202;-73
2022/06/01 04:35:17;;;;;;;9.43;3.67;;;;;;;30.89;37.94;99511.28;5072819;28;20257;-75
2022/06/01 04:37:44;;;;;;;3.27;2.93;;;;;;;31.07;36.92;99515.56;5072982;28;20195;-75
2022/06/01 04:40:13;;;;;;;7.27;3.20;;;;;;;31.37;37.56;99514.47;5072814;28;20277;-75
2022/06/01 04:42:40;;;;;;;6.97;3.50;;;;;;;31.94;35.32;99515.56;5072925;28;20203;-77
2022/06/01 04:45:10;;;;;;;5.70;3.47;;;;;;;32.13;34.60;99521.38;5072400;28;20274;-76
2022/06/01 04:47:38;;;;;;;5.10;3.07;;;;;;;32.79;33.65;99517.47;5071877;28;20184;-74
2022/06/01 04:50:06;;;;;;;7.73;3.40;;;;;;;33.07;33.24;99515.72;5072382;28;20228;-74
2022/06/01 04:52:32;;;;;;;17.40;3.60;;;;;;;33.79;32.09;99525.09;5072295;28;20253;-76
2022/06/01 04:55:01;;;;;;;6.43;2.93;;;;;;;33.89;31.30;99521.91;5072207;28;20192;-74
2022/06/01 04:57:28;;;;;;;2.47;2.27;;;;;;;33.89;31.53;99524.66;5071717;28;20636;-77
2022/06/01 04:59:54;;;;;;;8.67;3.00;;;;;;;34.36;30.62;99531.97;5071768;28;20259;-73
2022/06/01 05:02:22;;;;;;;2.80;2.33;;;;;;;34.55;30.17;99536.84;5071859;28;20721;-73
2022/06/01 05:04:49;;;;;;;9.73;2.83;;;;;;;34.62;30.38;99534.28;5071027;28;20192;-73
2022/06/01 05:07:16;;;;;;;9.53;3.13;;;;;;;34.58;30.40;99523.13;5071373;28;20325;-76
2022/06/01 05:09:42;;;;;;;5.87;2.80;;;;;;;34.91;29.84;99544.94;5071443;28;20257;-77
2022/06/01 05:12:09;;;;;;;3.58;2.63;;;;;;;34.47;30.57;99535.03;5069484;28;20223;-73
2022/06/01 05:14:36;;;;;;;6.43;2.17;;;;;;;34.66;30.55;99540.69;5070917;28;20276;-74
2022/06/01 05:17:03;;;;;;;3.93;2.17;;;;;;;34.25;31.05;99541.09;5059111;28;20192;-74
2022/06/01 05:19:33;;;;;;;3.97;2.37;;;;;;;34.30;30.88;99538.91;5056947;28;20238;-73
2022/06/01 05:22:00;;;;;;;6.43;2.07;;;;;;;34.46;30.94;99544.47;5052763;28;20184;-73
2022/06/01 05:24:26;;;;;;;2.67;2.17;;;;;;;34.44;30.83;99549.53;5051559;28;20246;-73
2022/06/01 05:26:53;;;;;;;8.13;2.60;;;;;;;34.29;31.09;99547.53;5051482;28;20193;-74
2022/06/01 05:29:22;;;;;;;4.57;2.30;;;;;;;34.04;31.34;99540.47;5062972;28;20243;-69
2022/06/01 05:31:49;;;;;;;6.57;1.97;;;;;;;34.67;30.52;99542.28;5067845;28;20600;-75
2022/06/01 05:34:16;;;;;;;4.23;2.20;;;;;;;34.69;30.19;99546.31;5064365;28;20697;-74
2022/06/01 05:36:44;;;;;;;10.50;2.30;;;;;;;34.97;29.91;99551.78;5060438;28;20196;-75
2022/06/01 05:39:11;;;;;;;9.05;2.00;;;;;;;34.65;30.33;99550.13;5071762;28;20241;-77
2022/06/01 05:41:38;;;;;;;4.38;2.20;;;;;;;35.00;29.70;99551.91;5057232;28;20199;-78
2022/06/01 05:44:06;;;;;;;4.22;2.50;;;;;;;34.77;28.96;99547.28;5052039;28;20550;-78
2022/06/01 05:46:35;;;;;;;3.78;1.95;;;;;;;34.16;29.92;99543.19;5051244;28;20657;-75
2022/06/01 05:49:02;;;;;;;5.00;2.20;;;;;;;34.25;30.06;99538.34;5056507;28;20238;-74
2022/06/01 05:51:28;;;;;;;14.40;2.60;;;;;;;34.57;29.51;99531.78;5072237;28;20309;-75
2022/06/01 05:53:56;;;;;;;12.23;2.75;;;;;;;34.32;29.41;99542.13;5071192;28;20196;-73
2022/06/01 05:56:23;;;;;;;5.25;2.28;;;;;;;34.13;29.48;99538.38;5069047;28;20249;-73
2022/06/01 05:58:50;;;;;;;5.82;2.28;;;;;;;34.21;29.87;99545.72;5062420;28;20619;-74
2022/06/01 06:01:17;;;;;;;3.30;2.10;;;;;;;34.20;30.35;99536.63;5062086;28;20216;-76
2022/06/01 06:03:44;;;;;;;3.70;2.15;;;;;;;34.43;29.99;99537.72;5069628;28;20206;-76
2022/06/01 06:06:15;;;;;;;8.07;2.80;;;;;;;34.48;29.60;99550.44;5068724;28;20203;-78
2022/06/01 06:08:44;;;;;;;8.23;2.58;;;;;;;34.47;30.11;99548.84;5063108;28;20195;-78
2022/06/01 06:11:13;;;;;;;2.45;2.10;;;;;;;34.38;29.79;99549.00;5070448;28;20199;-72
2022/06/01 06:13:41;;;;;;;5.00;2.47;;;;;;;34.38;30.27;99548.19;5071283;28;20192;-72
2022/06/01 06:16:08;;;;;;;4.38;3.10;;;;;;;34.28;30.46;99551.41;5050923;28;20653;-72
2022/06/01 06:18:35;;;;;;;10.32;2.83;;;;;;;34.33;30.57;99548.44;5051293;28;20254;-73
2022/06/01 06:21:01;;;;;;;3.72;2.53;;;;;;;34.28;30.91;99556.94;5053850;28;20212;-76
2022/06/01 06:23:29;;;;;;;3.33;2.28;;;;;;;34.44;30.02;99555.06;5069912;28;20192;-78
2022/06/01 06:25:55;;;;;;;4.07;2.38;;;;;;;34.18;30.34;99546.41;5071500;28;20253;-77
2022/06/01 06:28:23;;;;;;;3.97;2.80;;;;;;;34.23;30.85;99546.16;5073207;28;20192;-77
2022/06/01 06:30:51;;;;;;;7.82;2.63;;;;;;;34.35;30.16;99535.91;5075525;28;20260;-77
2022/06/01 06:33:18;;;;;;;8.55;3.47;;;;;;;34.32;30.10;99544.88;5074611;28;20195;-76
2022/06/01 06:35:44;;;;;;;6.85;2.63;;;;;;;34.48;30.49;99544.91;5074667;28;20191;-76
2022/06/01 06:38:12;;;;;;;4.55;2.58;;;;;;;34.50;30.70;99537.88;5074549;28;20198;-71
2022/06/01 06:40:39;;;;;;;10.77;3.15;;;;;;;34.66;30.89;99532.41;5074729;28;20220;-71
2022/06/01 06:43:06;;;;;;;2.65;2.17;;;;;;;34.43;29.52;99545.19;5074713;28;20196;-71
2022/06/01 06:45:34;;;;;;;4.65;2.08;;;;;;;34.12;31.64;99514.72;5074773;28;20195;-74
2022/06/01 06:48:01;;;;;;;3.38;2.20;;;;;;;34.29;31.50;99536.47;5074593;28;20195;-74
2022/06/01 06:50:27;;;;;;;4.80;3.58;;;;;;;33.97;30.45;99534.75;5074865;28;20223;-71
2022/06/01 06:52:54;;;;;;;4.03;2.58;;;;;;;33.86;31.67;99528.09;5070021;28;20196;-72
2022/06/01 06:55:21;;;;;;;2.55;2.35;;;;;;;33.45;32.39;99522.88;5073434;28;20200;-74
2022/06/01 06:57:47;;;;;;;7.15;2.40;;;;;;;33.51;32.06;99522.28;5073798;28;20618;-72
2022/06/01 07:00:15;;;;;;;6.05;2.28;;;;;;;33.36;32.24;99524.94;5072758;28;20976;-70
2022/06/01 07:02:43;;;;;;;6.25;2.22;;;;;;;33.32;31.99;99526.78;5082945;28;20196;-70
2022/06/01 07:06:08;;;;;;;4.90;2.10;;;;;;;33.12;32.19;99521.00;5080100;28;20203;-72
2022/06/01 07:07:58;;;;;;;8.03;2.27;;;;;;;33.48;32.15;99513.91;5069051;28;20234;-72
2022/06/01 07:10:25;;;;;;;2.75;2.33;;;;;;;33.39;32.05;99514.03;5072919;28;20195;-68
2022/06/01 07:12:51;;;;;;;3.20;1.90;;;;;;;33.64;32.22;99520.31;5071880;28;20884;-72
2022/06/01 07:15:18;;;;;;;4.87;2.33;;;;;;;33.76;32.20;99523.06;5071478;28;20200;-71
2022/06/01 07:17:47;;;;;;;4.70;2.13;;;;;;;33.94;31.67;99518.91;5071845;28;20222;-71
2022/06/01 07:20:14;;;;;;;6.17;2.43;;;;;;;33.75;31.76;99513.97;5070077;28;20231;-72
2022/06/01 07:22:41;;;;;;;5.00;2.30;;;;;;;33.78;31.51;99515.22;5071522;28;20256;-72
2022/06/01 07:25:08;;;;;;;3.47;2.60;;;;;;;33.90;31.49;99518.00;5089243;28;20199;-72
2022/06/01 07:27:36;;;;;;;5.28;2.40;;;;;;;33.82;31.39;99508.72;5090599;28;20616;-77
2022/06/01 07:30:04;;;;;;;4.47;2.30;;;;;;;33.87;30.69;99513.97;5090765;28;20192;-73
2022/06/01 07:32:30;;;;;;;6.60;2.78;;;;;;;33.73;31.77;99515.47;5092423;28;20195;-82
2022/06/01 07:34:58;;;;;;;3.58;2.67;;;;;;;33.97;31.78;99512.69;5092742;28;20292;-78
2022/06/01 07:43:07;;;;;;;3.95;2.88;;;;;;;33.69;31.90;99507.09;5073428;28;20180;-71
2022/06/01 07:45:34;;;;;;;3.88;2.67;;;;;;;33.21;32.33;99505.19;5073555;28;20195;-74
2022/06/01 07:48:01;;;;;;;4.90;2.20;;;;;;;33.36;32.12;99502.91;5072173;28;20192;-72
2022/06/01 07:50:29;;;;;;;3.92;2.63;;;;;;;33.41;32.03;99510.94;5071268;28;20243;-75
2022/06/01 07:52:56;;;;;;;4.17;2.50;;;;;;;33.29;31.57;99504.25;5071614;28;20200;-82
2022/06/01 07:55:23;;;;;;;9.15;2.85;;;;;;;33.18;32.31;99500.34;5071364;28;20688;-80
2022/06/01 07:57:50;;;;;;;2.70;2.50;;;;;;;33.21;32.45;99502.44;5071665;28;20249;-75
2022/06/01 08:00:17;;;;;;;3.53;2.40;;;;;;;33.18;32.00;99497.59;5072497;28;20280;-80
2022/06/01 08:02:44;;;;;;;3.40;2.40;;;;;;;33.20;32.01;99506.31;5073059;28;20332;-76
2022/06/01 08:05:14;;;;;;;3.50;2.47;;;;;;;33.19;31.99;99504.72;5073291;28;20609;-69
2022/06/01 08:07:42;;;;;;;3.63;2.63;;;;;;;33.21;32.21;99485.91;5084599;28;20198;-72
2022/06/01 08:10:11;;;;;;;3.17;2.10;;;;;;;33.33;31.39;99492.56;5093137;28;20261;-72
2022/06/01 08:15:23;;;;;;;5.57;3.00;;;;;;;33.08;33.83;99487.03;5070525;28;20269;-72
2022/06/01 08:17:49;;;;;;;6.13;2.90;;;;;;;33.00;33.72;99490.69;5072471;28;20191;-72
2022/06/01 08:20:17;;;;;;;2.97;2.40;;;;;;;32.61;33.86;99485.81;5070919;28;20245;-77
2022/06/01 08:22:45;;;;;;;6.90;2.77;;;;;;;32.54;34.20;99488.31;5072860;28;20199;-69
2022/06/01 08:25:14;;;;;;;5.27;2.93;;;;;;;32.52;34.47;99484.31;5072278;28;20664;-72
2022/06/01 08:27:40;;;;;;;4.33;3.07;;;;;;;32.60;33.55;99480.66;5070745;28;20284;-69
2022/06/01 08:30:08;;;;;;;3.60;3.27;;;;;;;32.58;34.29;99489.25;5071300;28;20256;-73
2022/06/01 08:32:35;;;;;;;7.47;3.00;;;;;;;32.58;33.94;99489.25;5071254;28;20245;-69
2022/06/01 08:35:01;;;;;;;4.20;2.50;;;;;;;32.67;33.17;99491.91;5070534;28;20249;-71
2022/06/01 08:37:28;;;;;;;6.33;3.07;;;;;;;32.91;32.31;99495.50;5070199;28;20196;-70
2022/06/01 08:39:56;;;;;;;3.40;2.97;;;;;;;32.91;34.08;99495.50;5057130;28;20277;-73
2022/06/01 08:42:24;;;;;;;6.97;3.40;;;;;;;33.07;33.44;99490.94;5072203;28;20289;-70
2022/06/01 08:44:53;;;;;;;3.57;3.03;;;;;;;33.36;33.80;99489.13;5068019;28;20241;-69
2022/06/01 08:47:25;;;;;;;8.15;3.50;;;;;;;33.39;32.64;99502.22;5067870;28;20254;-70
2022/06/01 08:49:53;;;;;;;3.58;2.80;;;;;;;33.31;32.73;99490.13;5069043;28;20715;-75
2022/06/01 08:52:23;;;;;;;5.67;3.00;;;;;;;33.29;32.15;99487.75;5072117;28;20207;-71
2022/06/01 08:54:50;;;;;;;4.53;2.60;;;;;;;33.20;32.60;99484.28;5088140;28;20248;-74
2022/06/01 08:57:28;;;;;;;3.17;2.87;;;;;;;33.20;33.13;99484.28;5088440;28;20285;-68
2022/06/01 09:00:02;;;;;;;3.47;3.27;;;;;;;33.11;33.13;99489.09;5089466;28;20190;-71
2022/06/01 09:02:43;;;;;;;7.20;2.85;;;;;;;33.21;33.04;99485.91;5090809;28;20213;-72
2022/06/01 09:05:15;;;;;;;3.55;2.90;;;;;;;33.11;31.73;99485.53;5082226;28;20192;-71
2022/06/01 09:07:48;;;;;;;8.20;3.00;;;;;;;33.23;31.81;99478.09;5071107;28;20185;-73
2022/06/01 09:10:39;;;;;;;8.83;2.87;;;;;;;33.24;33.58;99474.19;5070989;28;20183;-76
2022/06/01 09:13:11;;;;;;;5.13;2.90;;;;;;;33.47;32.68;99471.00;5069272;28;20759;-72
2022/06/01 09:15:46;;;;;;;4.37;3.10;;;;;;;33.38;33.53;99473.03;5069845;28;20234;-74
2022/06/01 09:18:14;;;;;;;2.47;2.38;;;;;;;33.27;31.34;99473.50;5070332;28;20659;-75
2022/06/01 09:23:25;;;;;;;4.57;3.03;;;;;;;33.00;32.92;99462.38;5071533;28;20214;-71
2022/06/01 09:25:56;;;;;;;4.43;2.90;;;;;;;33.18;32.72;99466.50;5072572;28;20270;-73
2022/06/01 09:28:26;;;;;;;2.83;2.60;;;;;;;33.29;32.33;99465.72;5071764;28;20195;-71
2022/06/01 09:30:58;;;;;;;9.40;2.60;;;;;;;33.37;31.94;99461.25;5071738;28;20202;-75
2022/06/01 09:33:28;;;;;;;5.00;2.50;;;;;;;33.36;32.05;99458.84;5071991;28;20246;-70
2022/06/01 09:36:17;;;;;;;2.27;2.07;;;;;;;33.23;31.39;99460.75;5072371;28;20218;-70
2022/06/01 09:38:49;;;;;;;7.20;2.50;;;;;;;33.33;29.99;99465.84;5071689;28;20180;-70
2022/06/01 09:41:25;;;;;;;2.70;2.50;;;;;;;33.33;31.11;99452.84;5071310;28;20703;-71
2022/06/01 09:43:57;;;;;;;5.23;2.10;;;;;;;33.35;29.08;99466.28;5071468;28;20219;-71
2022/06/01 09:46:32;;;;;;;2.23;1.90;;;;;;;33.38;28.33;99459.28;5071494;28;20644;-71
2022/06/01 09:48:59;;;;;;;3.70;2.50;;;;;;;33.31;30.68;99457.06;5071222;28;20191;-71
2022/06/01 09:51:26;;;;;;;2.93;2.13;;;;;;;33.17;29.91;99451.13;5072039;28;20227;-70
2022/06/01 09:54:08;;;;;;;2.33;2.13;;;;;;;33.29;31.64;99443.66;5071915;28;20196;-72
2022/06/01 09:56:41;;;;;;;8.50;2.95;;;;;;;33.35;31.63;99448.97;5070391;28;20229;-71
2022/06/01 10:07:42;;;;;;;3.40;2.28;;;;;;;33.52;30.86;99441.25;5075731;28;20225;-71
2022/06/01 10:10:23;;;;;;;4.47;2.20;;;;;;;33.61;29.84;99435.59;5076112;28;20563;-71
2022/06/01 10:12:53;;;;;;;2.65;2.20;;;;;;;33.82;29.60;99433.47;5073166;28;20202;-72
2022/06/01 10:15:28;;;;;;;2.90;2.50;;;;;;;34.02;28.02;99433.28;5075426;28;20321;-73
2022/06/01 10:18:00;;;;;;;3.22;1.60;;;;;;;34.13;27.28;99433.56;5075727;28;20225;-72
2022/06/01 10:20:31;;;;;;;2.72;1.85;;;;;;;34.13;28.31;99428.06;5076538;28;20187;-72
2022/06/01 10:23:02;;;;;;;5.13;1.98;;;;;;;33.92;27.50;99425.50;5075543;28;20207;-73
2022/06/01 10:25:33;;;;;;;3.40;2.17;;;;;;;33.88;28.12;99418.31;5075396;28;20717;-72
2022/06/01 10:28:06;;;;;;;2.17;2.05;;;;;;;34.01;28.37;99422.59;5075219;28;20207;-73
2022/06/01 10:30:38;;;;;;;2.42;1.92;;;;;;;34.24;26.96;99418.09;5075268;28;20188;-71
2022/06/01 10:33:09;;;;;;;3.92;1.95;;;;;;;34.38;28.03;99413.00;5075217;28;20283;-73
2022/06/01 10:35:40;;;;;;;4.97;2.17;;;;;;;34.32;28.80;99419.91;5075408;28;20194;-75
2022/06/01 10:38:18;;;;;;;2.33;2.00;;;;;;;34.10;27.79;99426.81;5074992;28;20216;-74
2022/06/01 10:40:51;;;;;;;3.38;2.15;;;;;;;33.63;27.63;99414.00;5075264;28;20211;-72
2022/06/01 10:43:29;;;;;;;3.00;1.80;;;;;;;34.02;27.61;99421.44;5076060;28;20184;-71
2022/06/01 10:46:13;;;;;;;4.80;2.47;;;;;;;34.00;27.29;99415.50;5074910;28;20183;-71
2022/06/01 10:48:50;;;;;;;7.20;2.70;;;;;;;34.09;27.32;99413.38;5074901;28;20640;-71
2022/06/01 10:51:21;;;;;;;2.63;2.28;;;;;;;34.30;27.44;99412.00;5075728;28;20564;-72
2022/06/01 10:53:57;;;;;;;2.30;1.85;;;;;;;34.40;26.80;99411.50;5074653;28;20230;-73
2022/06/01 10:56:25;;;;;;;1.88;1.77;;;;;;;34.59;27.30;99408.84;5075149;28;20261;-72
2022/06/01 10:58:55;;;;;;;3.40;1.98;;;;;;;34.44;25.78;99417.09;5074899;28;20245;-71
2022/06/01 11:01:42;;;;;;;2.25;2.15;;;;;;;34.57;27.27;99411.13;5074433;28;20683;-70
2022/06/01 11:04:32;;;;;;;5.07;2.88;;;;;;;34.60;26.74;99398.56;5074439;28;20270;-70
2022/06/01 11:07:12;;;;;;;1.90;1.80;;;;;;;34.38;26.82;99396.44;5074253;28;20549;-71
2022/06/01 11:09:50;;;;;;;29.17;3.15;;;;;;;34.65;26.60;99401.06;5069756;28;20185;-71
2022/06/01 11:12:30;;;;;;;3.85;1.83;;;;;;;34.58;26.34;99398.16;5063915;28;20595;-71
2022/06/01 11:15:09;;;;;;;6.40;1.85;;;;;;;34.70;26.13;99398.84;5074478;28;20184;-72
2022/06/01 11:17:46;;;;;;;2.20;1.67;;;;;;;34.56;26.70;99398.50;5089260;28;20190;-71
2022/06/01 11:20:52;;;;;;;2.22;1.70;;;;;;;34.08;26.64;99392.47;5083444;28;20188;-71
2022/06/01 11:23:35;;;;;;;2.47;2.28;;;;;;;34.10;26.65;99390.97;5072037;28;20184;-72
2022/06/01 11:26:10;;;;;;;6.47;2.35;;;;;;;33.95;26.70;99377.94;5065257;28;20180;-71
2022/06/01 11:28:54;;;;;;;2.45;2.10;;;;;;;33.87;26.57;99381.66;5054507;28;20262;-71
2022/06/01 11:31:23;;;;;;;2.85;2.30;;;;;;;33.98;26.31;99381.94;5053945;28;20714;-71
2022/06/01 11:33:58;;;;;;;2.78;2.05;;;;;;;34.15;26.41;99376.91;5053807;28;20232;-70
2022/06/01 11:36:36;;;;;;;3.25;2.03;;;;;;;34.24;26.23;99369.25;5054002;28;20239;-70
2022/06/01 11:39:15;;;;;;;3.17;2.30;;;;;;;34.02;26.57;99372.63;5054185;28;20195;-73
2022/06/01 11:41:53;;;;;;;4.30;2.30;;;;;;;34.09;26.52;99366.50;5070691;28;20261;-75
2022/06/01 11:44:26;;;;;;;3.22;2.00;;;;;;;34.05;26.79;99355.34;5074148;28;20188;-72
2022/06/01 11:46:56;;;;;;;3.58;2.13;;;;;;;34.25;27.06;99359.03;5073793;28;20549;-72
2022/06/01 11:49:34;;;;;;;2.60;1.92;;;;;;;34.23;26.42;99362.16;5073830;28;20188;-72
2022/06/01 11:52:16;;;;;;;3.55;1.92;;;;;;;34.35;26.45;99356.56;5074100;28;20196;-71
2022/06/01 11:54:44;;;;;;;4.93;2.13;;;;;;;34.58;26.59;99349.25;5073621;28;20537;-72
2022/06/01 11:57:24;;;;;;;3.53;1.88;;;;;;;34.76;26.25;99357.97;5073158;28;20218;-71
2022/06/01 11:59:55;;;;;;;3.80;2.10;;;;;;;34.68;26.77;99356.19;5074099;28;20681;-71
2022/06/01 12:02:43;;;;;;;2.33;2.13;;;;;;;34.68;26.28;99357.00;5073934;28;20265;-70
2022/06/01 12:05:14;;;;;;;2.72;2.20;;;;;;;34.79;27.03;99357.25;5073377;28;20191;-73
2022/06/01 12:07:48;;;;;;;3.28;2.10;;;;;;;34.69;26.14;99363.31;5086808;28;20255;-71
2022/06/01 12:10:25;;;;;;;5.80;2.13;;;;;;;34.33;26.51;99355.34;5094458;28;20219;-71
2022/06/01 12:13:02;;;;;;;22.23;15.55;;;;;;;34.20;25.90;99367.56;5085133;28;20617;-72